createdAt,value
2022-09-23T00:02:07.443Z,1
2022-09-23T00:12:09.106Z,1
2022-09-23T00:22:07.561Z,1
2022-09-23T00:32:07.464Z,1
2022-09-23T00:42:07.534Z,1
2022-09-23T00:52:07.480Z,1
2022-09-23T01:02:07.594Z,1
2022-09-23T01:12:07.495Z,1
2022-09-23T01:22:07.552Z,1
2022-09-23T01:32:07.466Z,1
2022-09-23T01:42:07.570Z,1
2022-09-23T01:52:07.661Z,1
2022-09-23T02:02:07.565Z,1
2022-09-23T02:12:07.674Z,1
2022-09-23T02:22:07.646Z,1
2022-09-23T02:32:07.707Z,1
2022-09-23T02:42:07.548Z,1
2022-09-23T02:52:07.735Z,1
2022-09-23T03:02:07.618Z,1
2022-09-23T03:12:07.712Z,1
2022-09-23T03:22:07.566Z,1
2022-09-23T03:32:07.781Z,1
2022-09-23T03:42:07.554Z,1
2022-09-23T03:52:07.679Z,1
2022-09-23T04:02:07.923Z,1
2022-09-23T04:12:07.690Z,1
2022-09-23T04:22:07.755Z,1
2022-09-23T04:32:07.677Z,1
2022-09-23T04:42:07.758Z,1
2022-09-23T04:52:07.711Z,1
2022-09-23T05:02:07.821Z,1
2022-09-23T05:12:07.916Z,1
2022-09-23T05:22:07.746Z,1
2022-09-23T05:32:07.936Z,6
2022-09-23T05:42:07.763Z,21
2022-09-23T05:52:07.930Z,49
2022-09-23T06:02:07.783Z,70
2022-09-23T06:12:07.876Z,80
2022-09-23T06:22:07.728Z,85
2022-09-23T06:32:07.854Z,89
2022-09-23T06:42:07.947Z,91
2022-09-23T06:52:07.866Z,97
2022-09-23T07:02:08.044Z,97
2022-09-23T07:12:07.946Z,97
2022-09-23T07:22:07.939Z,95
2022-09-23T07:32:13.497Z,95
2022-09-23T07:42:07.959Z,95
2022-09-23T07:52:07.849Z,95
2022-09-23T08:02:07.943Z,96
2022-09-23T08:12:09.780Z,97
2022-09-23T08:22:07.956Z,97
2022-09-23T08:32:07.874Z,95
2022-09-23T08:42:07.955Z,95
2022-09-23T08:52:08.084Z,95
2022-09-23T09:02:07.990Z,96
2022-09-23T09:12:08.184Z,96
2022-09-23T09:22:07.960Z,96
2022-09-23T09:32:10.555Z,96
2022-09-23T09:42:08.008Z,96
2022-09-23T09:52:08.124Z,96
2022-09-23T10:02:07.933Z,96
2022-09-23T10:12:08.051Z,95
2022-09-23T10:22:08.093Z,96
2022-09-23T10:32:08.200Z,96
2022-09-23T10:42:08.272Z,95
2022-09-23T10:52:08.067Z,96
2022-09-23T11:02:08.125Z,96
2022-09-23T11:12:08.131Z,95
2022-09-23T11:22:08.649Z,96
2022-09-23T11:32:08.045Z,97
2022-09-23T11:42:08.113Z,97
2022-09-23T11:52:08.255Z,96
2022-09-23T12:02:17.227Z,97
2022-09-23T12:12:08.264Z,97
2022-09-23T12:22:08.145Z,97
2022-09-23T12:32:08.263Z,97
2022-09-23T12:42:08.120Z,97
2022-09-23T12:52:08.245Z,97
2022-09-23T13:02:08.255Z,97
2022-09-23T13:12:08.259Z,97
2022-09-23T13:22:08.324Z,97
2022-09-23T13:32:08.313Z,97
2022-09-23T13:42:08.313Z,97
2022-09-23T13:52:08.265Z,97
2022-09-23T14:02:08.431Z,96
2022-09-23T14:12:08.262Z,96
2022-09-23T14:22:12.239Z,96
2022-09-23T14:32:08.249Z,96
2022-09-23T14:42:08.343Z,95
2022-09-23T14:52:08.470Z,95
2022-09-23T15:02:08.338Z,96
2022-09-23T15:12:08.444Z,96
2022-09-23T15:22:08.314Z,96
2022-09-23T15:32:08.454Z,95
2022-09-23T15:42:08.329Z,95
2022-09-23T15:52:08.452Z,94
2022-09-23T16:02:08.345Z,94
2022-09-23T16:12:08.441Z,93
2022-09-23T16:22:08.527Z,94
2022-09-23T16:32:08.505Z,94
2022-09-23T16:42:08.513Z,94
2022-09-23T16:52:08.638Z,93
2022-09-23T17:02:08.615Z,90
2022-09-23T17:12:08.502Z,89
2022-09-23T17:22:08.511Z,89
2022-09-23T17:32:08.487Z,87
2022-09-23T17:42:08.520Z,84
2022-09-23T17:52:08.441Z,80
2022-09-23T18:02:10.570Z,73
2022-09-23T18:12:08.703Z,56
2022-09-23T18:22:08.554Z,34
2022-09-23T18:32:12.205Z,11
2022-09-23T18:42:08.591Z,3
2022-09-23T18:52:08.716Z,1
2022-09-23T19:02:08.713Z,1
2022-09-23T19:12:08.703Z,1
2022-09-23T19:22:09.410Z,1
2022-09-23T19:32:08.618Z,1
2022-09-23T19:42:08.723Z,1
2022-09-23T19:52:08.621Z,1
2022-09-23T20:02:09.159Z,1
2022-09-23T20:12:08.850Z,1
2022-09-23T20:22:08.690Z,1
2022-09-23T20:32:08.609Z,1
2022-09-23T20:42:08.699Z,1
2022-09-23T20:52:09.022Z,1
2022-09-23T21:02:08.726Z,1
2022-09-23T21:12:08.810Z,1
2022-09-23T21:22:08.700Z,1
2022-09-23T21:32:08.900Z,1
2022-09-23T21:42:08.938Z,1
2022-09-23T21:52:08.801Z,1
2022-09-23T22:02:08.656Z,1
2022-09-23T22:12:08.789Z,1
2022-09-23T22:22:08.899Z,1
2022-09-23T22:32:08.849Z,1
2022-09-23T22:42:08.878Z,1
2022-09-23T22:52:08.794Z,1
2022-09-23T23:02:08.958Z,1
2022-09-23T23:12:08.816Z,1
2022-09-23T23:22:08.929Z,1
2022-09-23T23:32:08.974Z,1
2022-09-23T23:42:08.919Z,1
2022-09-23T23:52:08.845Z,1
